createdAt,value
2017-12-16T00:03:06.956Z,2.47
2017-12-16T00:08:35.151Z,3.03
2017-12-16T00:14:03.476Z,2.00
2017-12-16T00:19:31.703Z,2.40
2017-12-16T00:25:00.937Z,2.27
2017-12-16T00:30:29.140Z,1.70
2017-12-16T00:35:58.082Z,1.90
2017-12-16T00:41:26.289Z,2.37
2017-12-16T00:46:54.495Z,3.47
2017-12-16T00:52:22.681Z,2.93
2017-12-16T00:57:50.898Z,2.57
2017-12-16T01:03:19.097Z,2.80
2017-12-16T01:08:48.047Z,2.10
2017-12-16T01:14:17.018Z,2.10
2017-12-16T01:19:45.497Z,1.80
2017-12-16T01:25:15.660Z,2.00
2017-12-16T01:30:43.868Z,2.33
2017-12-16T01:36:31.779Z,1.93
2017-12-16T01:42:00.043Z,1.50
2017-12-16T01:47:48.732Z,2.10
2017-12-16T01:53:16.989Z,2.10
2017-12-16T01:58:45.198Z,2.03
2017-12-16T02:04:13.703Z,1.70
2017-12-16T02:09:42.177Z,2.23
2017-12-16T02:15:10.707Z,1.93
2017-12-16T02:20:40.216Z,1.90
2017-12-16T02:26:08.466Z,1.87
2017-12-16T02:31:36.657Z,2.30
2017-12-16T02:37:04.858Z,2.00
2017-12-16T02:42:33.837Z,2.47
2017-12-16T02:48:02.185Z,1.97
2017-12-16T02:53:30.419Z,1.80
2017-12-16T02:59:00.382Z,1.97
2017-12-16T03:04:28.578Z,1.97
2017-12-16T03:09:56.868Z,2.33
2017-12-16T03:15:25.182Z,1.63
2017-12-16T03:20:53.544Z,1.40
2017-12-16T03:26:22.450Z,1.80
2017-12-16T03:32:01.320Z,1.50
2017-12-16T03:37:29.522Z,2.07
2017-12-16T03:42:57.732Z,1.80
2017-12-16T03:48:27.763Z,1.50
2017-12-16T03:53:56.147Z,1.50
2017-12-16T03:59:44.318Z,1.80
2017-12-16T04:05:13.646Z,2.13
2017-12-16T04:10:44.127Z,1.60
2017-12-16T04:16:14.968Z,1.57
2017-12-16T04:21:43.766Z,1.70
2017-12-16T04:27:17.777Z,1.73
2017-12-16T04:32:46.891Z,1.90
2017-12-16T04:38:15.116Z,1.70
2017-12-16T04:43:50.384Z,1.33
2017-12-16T04:49:19.555Z,1.77
2017-12-16T04:54:48.261Z,1.67
2017-12-16T05:00:16.800Z,1.80
2017-12-16T05:05:45.120Z,2.10
2017-12-16T05:11:13.313Z,2.17
2017-12-16T05:16:48.147Z,1.50
2017-12-16T05:22:16.330Z,1.30
2017-12-16T05:27:44.590Z,1.70
2017-12-16T05:33:16.784Z,2.00
2017-12-16T05:38:45.964Z,1.57
2017-12-16T05:44:14.145Z,1.80
2017-12-16T05:49:42.385Z,1.83
2017-12-16T05:55:10.582Z,1.80
2017-12-16T06:00:38.790Z,1.83
2017-12-16T06:06:18.985Z,1.97
2017-12-16T06:11:47.171Z,1.80
2017-12-16T06:17:15.577Z,1.53
2017-12-16T06:22:43.752Z,1.83
2017-12-16T06:28:11.924Z,1.70
2017-12-16T06:33:54.091Z,1.83
2017-12-16T06:39:22.276Z,2.50
2017-12-16T06:44:51.423Z,2.07
2017-12-16T06:50:19.618Z,1.80
2017-12-16T06:55:47.848Z,1.70
2017-12-16T07:01:16.713Z,1.70
2017-12-16T07:06:44.893Z,2.10
2017-12-16T07:12:13.115Z,2.00
2017-12-16T07:17:43.028Z,1.83
2017-12-16T07:23:11.218Z,2.07
2017-12-16T07:28:39.459Z,2.50
2017-12-16T07:34:07.643Z,2.10
2017-12-16T07:39:36.604Z,2.33
2017-12-16T07:45:04.815Z,1.90
2017-12-16T07:50:33.078Z,2.60
2017-12-16T07:56:02.195Z,2.63
2017-12-16T08:01:30.442Z,2.00
2017-12-16T08:06:58.627Z,1.90
2017-12-16T08:12:26.796Z,2.60
2017-12-16T08:17:54.980Z,2.03
2017-12-16T08:23:25.273Z,2.00
2017-12-16T08:28:53.467Z,2.33
2017-12-16T08:34:22.742Z,1.93
2017-12-16T08:39:51.022Z,2.17
2017-12-16T08:45:19.214Z,2.07
2017-12-16T08:50:48.213Z,2.50
2017-12-16T08:56:16.393Z,3.00
2017-12-16T09:01:44.637Z,2.33
2017-12-16T09:07:12.883Z,2.90
2017-12-16T09:12:41.078Z,3.40
2017-12-16T09:18:09.299Z,2.13
2017-12-16T09:23:37.486Z,3.10
2017-12-16T09:29:06.594Z,3.50
2017-12-16T09:34:34.779Z,2.90
2017-12-16T09:40:03.251Z,3.00
2017-12-16T09:45:31.436Z,3.80
2017-12-16T09:51:00.580Z,3.90
2017-12-16T09:56:28.798Z,3.43
2017-12-16T10:01:57.006Z,3.60
2017-12-16T10:07:25.188Z,3.60
2017-12-16T10:12:54.361Z,4.00
2017-12-16T10:18:22.609Z,3.40
2017-12-16T10:23:50.814Z,4.10
2017-12-16T10:29:19.056Z,4.30
2017-12-16T10:35:00.730Z,4.57
2017-12-16T10:40:28.914Z,4.10
2017-12-16T10:45:57.146Z,3.50
2017-12-16T10:51:25.336Z,3.77
2017-12-16T10:56:57.367Z,5.40
2017-12-16T11:02:30.042Z,4.77
2017-12-16T11:07:59.289Z,4.50
2017-12-16T11:13:29.172Z,4.50
2017-12-16T11:18:57.348Z,4.90
2017-12-16T11:24:25.543Z,4.87
2017-12-16T11:29:53.862Z,4.63
2017-12-16T11:35:22.095Z,3.77
2017-12-16T11:40:50.288Z,5.03
2017-12-16T11:46:18.567Z,4.43
2017-12-16T11:51:46.945Z,4.30
2017-12-16T11:57:15.278Z,4.10
2017-12-16T12:02:45.456Z,5.00
2017-12-16T12:08:13.670Z,5.03
2017-12-16T12:13:41.864Z,3.87
2017-12-16T12:19:10.121Z,4.50
2017-12-16T12:24:38.351Z,4.80
2017-12-16T12:30:06.587Z,5.37
2017-12-16T12:35:35.579Z,4.13
2017-12-16T12:41:03.802Z,3.60
2017-12-16T12:46:32.026Z,3.80
2017-12-16T12:52:01.330Z,4.07
2017-12-16T12:57:29.519Z,3.47
2017-12-16T13:02:58.568Z,3.93
2017-12-16T13:08:26.756Z,3.00
2017-12-16T13:13:55.890Z,3.17
2017-12-16T13:19:24.088Z,3.30
2017-12-16T13:24:53.352Z,3.87
2017-12-16T13:30:21.527Z,3.70
2017-12-16T13:35:49.719Z,3.80
2017-12-16T13:41:17.922Z,3.20
2017-12-16T13:46:46.122Z,2.83
2017-12-16T13:52:19.501Z,4.00
2017-12-16T13:57:48.767Z,3.80
2017-12-16T14:03:17.823Z,5.30
2017-12-16T14:08:46.881Z,6.03
2017-12-16T14:14:15.063Z,6.27
2017-12-16T14:19:43.275Z,5.37
2017-12-16T14:25:11.454Z,7.37
2017-12-16T14:30:39.640Z,5.60
2017-12-16T14:36:08.666Z,6.40
2017-12-16T14:41:37.756Z,5.87
2017-12-16T14:47:05.937Z,8.47
2017-12-16T14:52:35.863Z,8.17
2017-12-16T14:58:04.079Z,7.67
2017-12-16T15:03:36.384Z,9.97
2017-12-16T15:09:04.628Z,10.53
2017-12-16T15:14:32.913Z,11.73
2017-12-16T15:20:01.125Z,11.37
2017-12-16T15:25:35.787Z,10.80
2017-12-16T15:31:04.779Z,10.67
2017-12-16T15:36:33.014Z,11.60
2017-12-16T15:42:01.243Z,12.13
2017-12-16T15:47:29.470Z,12.70
2017-12-16T15:52:57.694Z,12.43
2017-12-16T15:58:25.929Z,11.97
2017-12-16T16:03:55.901Z,11.90
2017-12-16T16:09:24.889Z,12.80
2017-12-16T16:14:53.158Z,14.10
2017-12-16T16:20:22.192Z,12.40
2017-12-16T16:25:52.372Z,12.90
2017-12-16T16:31:21.397Z,10.20
2017-12-16T16:36:54.067Z,11.57
2017-12-16T16:42:27.235Z,7.00
2017-12-16T16:48:04.238Z,10.90
2017-12-16T16:53:32.465Z,6.90
2017-12-16T16:59:00.669Z,10.70
2017-12-16T17:04:30.101Z,11.70
2017-12-16T17:09:58.376Z,9.63
2017-12-16T17:15:26.565Z,9.53
2017-12-16T17:20:56.925Z,10.60
2017-12-16T17:26:25.170Z,5.80
2017-12-16T17:31:55.329Z,7.00
2017-12-16T17:37:23.503Z,9.00
2017-12-16T17:42:52.447Z,11.20
2017-12-16T17:48:21.413Z,10.10
2017-12-16T17:53:49.594Z,10.63
2017-12-16T17:59:21.468Z,9.47
2017-12-16T18:04:49.696Z,8.93
2017-12-16T18:10:17.931Z,11.70
2017-12-16T18:15:46.125Z,8.63
2017-12-16T18:21:14.325Z,10.57
2017-12-16T18:26:42.517Z,9.13
2017-12-16T18:32:11.533Z,10.10
2017-12-16T18:37:39.733Z,12.50
2017-12-16T18:43:07.936Z,11.63
2017-12-16T18:48:36.129Z,12.83
2017-12-16T18:54:04.389Z,11.97
2017-12-16T18:59:32.599Z,9.10
2017-12-16T19:05:01.061Z,13.70
2017-12-16T19:10:29.287Z,10.50
2017-12-16T19:15:57.492Z,12.20
2017-12-16T19:21:25.745Z,15.20
2017-12-16T19:26:54.003Z,13.70
2017-12-16T19:32:22.221Z,15.23
2017-12-16T19:37:50.410Z,11.73
2017-12-16T19:43:19.633Z,13.77
2017-12-16T19:48:47.847Z,13.27
2017-12-16T19:54:16.059Z,9.30
2017-12-16T19:59:44.262Z,11.60
2017-12-16T20:05:12.494Z,11.23
2017-12-16T20:10:40.710Z,11.57
2017-12-16T20:16:08.888Z,12.93
2017-12-16T20:21:38.676Z,10.27
2017-12-16T20:27:10.929Z,14.60
2017-12-16T20:32:39.193Z,10.10
2017-12-16T20:38:07.433Z,15.30
2017-12-16T20:43:35.752Z,13.47
2017-12-16T20:49:04.104Z,14.90
2017-12-16T20:54:33.660Z,13.50
2017-12-16T21:00:01.975Z,12.53
2017-12-16T21:05:31.443Z,11.67
2017-12-16T21:10:59.687Z,8.40
2017-12-16T21:16:28.683Z,8.90
2017-12-16T21:21:56.940Z,12.57
2017-12-16T21:27:25.769Z,12.90
2017-12-16T21:32:53.993Z,12.00
2017-12-16T21:38:22.216Z,11.10
2017-12-16T21:43:50.423Z,11.70
2017-12-16T21:49:18.610Z,11.07
2017-12-16T21:54:46.809Z,10.30
2017-12-16T22:00:15.003Z,10.80
2017-12-16T22:05:43.211Z,12.10
2017-12-16T22:11:11.406Z,10.37
2017-12-16T22:16:39.595Z,10.17
2017-12-16T22:22:07.867Z,8.80
2017-12-16T22:27:36.096Z,9.83
2017-12-16T22:33:04.281Z,9.67
2017-12-16T22:38:32.522Z,9.40
2017-12-16T22:44:00.748Z,8.37
2017-12-16T22:49:29.895Z,10.70
2017-12-16T22:54:58.113Z,9.37
2017-12-16T23:00:26.306Z,10.67
2017-12-16T23:05:54.811Z,10.90
2017-12-16T23:11:23.070Z,9.27
2017-12-16T23:16:51.389Z,10.50
2017-12-16T23:22:20.541Z,9.00
2017-12-16T23:27:48.759Z,10.77
2017-12-16T23:33:18.072Z,10.30
2017-12-16T23:38:51.836Z,9.37
2017-12-16T23:44:20.149Z,8.07
2017-12-16T23:49:51.193Z,7.90
2017-12-16T23:55:19.376Z,9.87
